Time;durP1;ratioP1;P1;durP2;ratioP2;P2;SDS_P1;SDS_P2;PMS_P1;PMS_P2;Temp;Humidity;BMP_temperature;BMP_pressure;BME280_temperature;BME280_humidity;BME280_pressure;Samples;Min_cycle;Max_cycle;Signal;HPM_P1;HPM_P2
2021/11/23 00:02:02;;;;;;;16.67;12.38;;;;;;;;;;5072508;28;20236;-66
2021/11/23 00:04:30;;;;;;;15.05;11.50;;;;;;;;;;5076056;28;20181;-66
2021/11/23 00:06:58;;;;;;;15.60;11.07;;;;;;;;;;5075422;28;20186;-66
2021/11/23 00:09:25;;;;;;;16.52;11.15;;;;;;;;;;5075254;28;20194;-65
2021/11/23 00:11:54;;;;;;;17.92;11.82;;;;;;;;;;5075927;28;20243;-66
2021/11/23 00:14:23;;;;;;;17.95;11.43;;;;;;;;;;5075304;28;20233;-66
2021/11/23 00:16:53;;;;;;;20.55;13.07;;;;;;;;;;5075769;28;20205;-66
2021/11/23 00:19:20;;;;;;;17.35;12.40;;;;;;;;;;5075342;28;20194;-67
2021/11/23 00:21:48;;;;;;;19.00;12.45;;;;;;;;;;5055376;28;20229;-66
2021/11/23 00:24:15;;;;;;;15.65;11.85;;;;;;;;;;5071915;28;20714;-66
2021/11/23 00:26:45;;;;;;;12.48;9.70;;;;;;;;;;5075710;28;20560;-66
2021/11/23 00:29:13;;;;;;;16.50;10.35;;;;;;;;;;5075381;28;20186;-66
2021/11/23 00:31:46;;;;;;;15.95;9.43;;;;;;;;;;5075506;28;20225;-65
2021/11/23 00:34:15;;;;;;;14.05;10.52;;;;;;;;;;5074626;28;20182;-66
2021/11/23 00:36:43;;;;;;;15.63;10.55;;;;;;;;;;5075541;28;20202;-66
2021/11/23 00:39:11;;;;;;;17.20;10.85;;;;;;;;;;5075077;28;20236;-66
2021/11/23 00:41:47;;;;;;;13.90;9.63;;;;;;;;;;5075302;28;20222;-66
2021/11/23 00:44:15;;;;;;;12.60;9.05;;;;;;;;;;5074621;28;20266;-66
2021/11/23 00:46:43;;;;;;;14.30;9.23;;;;;;;;;;5075454;28;20240;-66
2021/11/23 00:49:11;;;;;;;13.00;9.55;;;;;;;;;;5074971;28;20182;-66
2021/11/23 00:51:40;;;;;;;14.93;9.10;;;;;;;;;;5075338;28;20193;-66
2021/11/23 00:54:08;;;;;;;13.80;9.27;;;;;;;;;;5074120;28;20672;-66
2021/11/23 00:56:36;;;;;;;10.95;7.82;;;;;;;;;;5074616;28;20553;-66
2021/11/23 00:59:04;;;;;;;13.00;8.73;;;;;;;;;;5074437;28;20186;-65
2021/11/23 01:01:34;;;;;;;12.05;9.05;;;;;;;;;;5074795;28;20305;-66
2021/11/23 01:04:02;;;;;;;12.52;9.25;;;;;;;;;;5074202;28;20194;-66
2021/11/23 01:06:30;;;;;;;11.80;9.32;;;;;;;;;;5058201;28;20178;-66
2021/11/23 01:08:59;;;;;;;13.45;8.52;;;;;;;;;;5074643;28;20190;-65
2021/11/23 01:11:26;;;;;;;12.15;8.95;;;;;;;;;;5074519;28;20201;-66
2021/11/23 01:13:54;;;;;;;11.20;8.48;;;;;;;;;;5073707;28;20213;-66
2021/11/23 01:16:23;;;;;;;12.50;8.55;;;;;;;;;;5074624;28;20186;-66
2021/11/23 01:18:52;;;;;;;12.43;9.02;;;;;;;;;;5074191;28;20194;-66
2021/11/23 01:21:19;;;;;;;13.45;9.18;;;;;;;;;;5069884;28;20707;-65
2021/11/23 01:23:47;;;;;;;12.10;8.75;;;;;;;;;;5054607;28;20195;-65
2021/11/23 01:26:19;;;;;;;14.63;10.48;;;;;;;;;;5070635;28;20278;-66
2021/11/23 01:28:47;;;;;;;12.93;9.45;;;;;;;;;;5074724;28;20201;-66
2021/11/23 01:31:17;;;;;;;12.57;10.10;;;;;;;;;;5073990;28;20650;-65
2021/11/23 01:33:45;;;;;;;14.95;10.05;;;;;;;;;;5074182;28;20243;-66
2021/11/23 01:36:14;;;;;;;13.70;9.77;;;;;;;;;;5074358;28;20194;-66
2021/11/23 01:38:42;;;;;;;15.35;10.20;;;;;;;;;;5073743;28;20182;-66
2021/11/23 01:41:10;;;;;;;14.63;10.20;;;;;;;;;;5074165;28;20225;-66
2021/11/23 01:43:39;;;;;;;12.50;9.85;;;;;;;;;;5073637;28;21146;-66
2021/11/23 01:46:08;;;;;;;15.07;10.10;;;;;;;;;;5073869;28;20676;-66
2021/11/23 01:48:37;;;;;;;15.48;10.98;;;;;;;;;;5073558;28;20198;-65
2021/11/23 01:51:05;;;;;;;14.45;9.40;;;;;;;;;;5073682;28;20228;-67
2021/11/23 01:53:33;;;;;;;14.02;10.40;;;;;;;;;;5073435;28;20194;-66
2021/11/23 01:56:01;;;;;;;13.68;9.93;;;;;;;;;;5073989;28;20198;-66
2021/11/23 01:58:28;;;;;;;12.57;9.70;;;;;;;;;;5073414;28;20190;-66
2021/11/23 02:00:58;;;;;;;11.70;9.23;;;;;;;;;;5073368;28;20308;-66
2021/11/23 02:03:26;;;;;;;12.43;9.43;;;;;;;;;;5073313;28;20197;-66
2021/11/23 02:05:54;;;;;;;14.82;9.80;;;;;;;;;;5073669;28;20186;-67
2021/11/23 02:08:21;;;;;;;12.13;9.25;;;;;;;;;;5073640;28;20190;-66
2021/11/23 02:10:49;;;;;;;13.50;9.13;;;;;;;;;;5072629;28;20273;-67
2021/11/23 02:13:18;;;;;;;13.07;9.20;;;;;;;;;;5073563;28;20260;-66
2021/11/23 02:15:46;;;;;;;15.30;9.43;;;;;;;;;;5073126;28;20204;-65
2021/11/23 02:18:16;;;;;;;11.43;8.80;;;;;;;;;;5073631;28;20185;-66
2021/11/23 02:20:48;;;;;;;12.77;8.63;;;;;;;;;;5073442;28;20613;-65
2021/11/23 02:23:16;;;;;;;13.23;9.32;;;;;;;;;;5072548;28;20198;-66
2021/11/23 02:25:44;;;;;;;15.18;9.63;;;;;;;;;;5071908;28;20194;-65
2021/11/23 02:28:12;;;;;;;14.02;9.70;;;;;;;;;;5073511;28;20203;-66
2021/11/23 02:30:42;;;;;;;13.30;8.90;;;;;;;;;;5072887;28;20186;-65
2021/11/23 02:33:12;;;;;;;12.98;9.43;;;;;;;;;;5072726;28;20637;-66
2021/11/23 02:35:47;;;;;;;15.07;11.00;;;;;;;;;;5072258;28;20185;-66
2021/11/23 02:38:18;;;;;;;17.70;11.07;;;;;;;;;;5073253;28;20594;-65
2021/11/23 02:40:46;;;;;;;14.75;11.32;;;;;;;;;;5072823;28;20606;-66
2021/11/23 02:43:13;;;;;;;14.10;10.00;;;;;;;;;;5073087;28;20248;-65
2021/11/23 02:45:41;;;;;;;15.85;11.35;;;;;;;;;;5072185;28;20190;-65
2021/11/23 02:48:10;;;;;;;15.40;10.70;;;;;;;;;;5072794;28;20275;-66
2021/11/23 02:50:44;;;;;;;13.85;10.23;;;;;;;;;;5072527;28;20590;-66
2021/11/23 02:53:14;;;;;;;14.57;10.45;;;;;;;;;;5072860;28;20189;-66
2021/11/23 02:55:43;;;;;;;15.73;11.15;;;;;;;;;;5071936;28;20187;-66
2021/11/23 02:58:12;;;;;;;14.00;10.30;;;;;;;;;;5071949;28;20229;-67
2021/11/23 03:00:46;;;;;;;12.80;9.68;;;;;;;;;;5072039;28;20217;-66
2021/11/23 03:03:14;;;;;;;16.98;12.02;;;;;;;;;;5072610;28;20592;-66
2021/11/23 03:05:42;;;;;;;14.15;10.05;;;;;;;;;;5072609;28;20254;-65
2021/11/23 03:08:10;;;;;;;18.00;11.48;;;;;;;;;;5072425;28;20265;-66
2021/11/23 03:10:42;;;;;;;18.80;12.05;;;;;;;;;;5072562;28;20198;-65
2021/11/23 03:13:11;;;;;;;18.70;11.43;;;;;;;;;;5071601;28;20342;-66
2021/11/23 03:15:39;;;;;;;15.35;10.55;;;;;;;;;;5072232;28;20186;-66
2021/11/23 03:18:09;;;;;;;15.23;10.95;;;;;;;;;;5072410;28;20194;-66
2021/11/23 03:20:37;;;;;;;18.90;12.40;;;;;;;;;;5071972;28;20198;-66
2021/11/23 03:23:05;;;;;;;13.02;10.20;;;;;;;;;;5072405;28;20200;-65
2021/11/23 03:25:33;;;;;;;17.60;12.25;;;;;;;;;;5071922;28;20190;-66
2021/11/23 03:28:01;;;;;;;18.77;11.77;;;;;;;;;;5072149;28;20199;-65
2021/11/23 03:30:35;;;;;;;24.77;12.30;;;;;;;;;;5071659;28;20182;-66
2021/11/23 03:33:04;;;;;;;17.83;12.43;;;;;;;;;;5071928;28;20196;-66
2021/11/23 03:35:33;;;;;;;15.90;11.63;;;;;;;;;;5071591;28;20196;-65
2021/11/23 03:38:01;;;;;;;14.55;10.35;;;;;;;;;;5071196;28;20201;-65
2021/11/23 03:40:30;;;;;;;17.60;11.98;;;;;;;;;;5071758;28;20645;-65
2021/11/23 03:42:58;;;;;;;20.50;13.88;;;;;;;;;;5072270;28;20275;-66
2021/11/23 03:45:26;;;;;;;18.35;12.98;;;;;;;;;;5071678;28;20221;-66
2021/11/23 03:47:56;;;;;;;20.20;12.45;;;;;;;;;;5071803;28;20205;-66
2021/11/23 03:50:27;;;;;;;17.58;11.88;;;;;;;;;;5070339;28;20182;-65
2021/11/23 03:52:55;;;;;;;18.70;12.90;;;;;;;;;;5071584;28;20190;-66
2021/11/23 03:55:23;;;;;;;17.42;12.70;;;;;;;;;;5071330;28;20224;-66
2021/11/23 03:57:52;;;;;;;16.50;10.50;;;;;;;;;;5071739;28;20582;-66
2021/11/23 04:00:20;;;;;;;21.58;13.25;;;;;;;;;;5071352;28;20193;-65
2021/11/23 04:02:49;;;;;;;16.85;12.63;;;;;;;;;;5070590;28;20270;-66
2021/11/23 04:05:18;;;;;;;18.10;12.25;;;;;;;;;;5071155;28;20193;-66
2021/11/23 04:07:46;;;;;;;20.25;12.13;;;;;;;;;;5071962;28;20225;-65
2021/11/23 04:10:15;;;;;;;16.48;11.55;;;;;;;;;;5070999;28;20186;-67
2021/11/23 04:12:44;;;;;;;15.52;11.20;;;;;;;;;;5071492;28;20194;-65
2021/11/23 04:15:11;;;;;;;16.60;12.20;;;;;;;;;;5070657;28;20618;-65
2021/11/23 04:17:39;;;;;;;16.15;11.88;;;;;;;;;;5071872;28;20206;-66
2021/11/23 04:20:08;;;;;;;16.23;12.35;;;;;;;;;;5071342;28;20201;-66
2021/11/23 04:22:38;;;;;;;20.35;13.90;;;;;;;;;;5071180;28;20217;-65
2021/11/23 04:25:07;;;;;;;16.55;11.52;;;;;;;;;;5071528;28;20187;-66
2021/11/23 04:27:34;;;;;;;18.10;12.45;;;;;;;;;;5071195;28;20189;-66
2021/11/23 04:30:02;;;;;;;14.73;10.82;;;;;;;;;;5071282;28;20198;-66
2021/11/23 04:32:30;;;;;;;15.77;11.65;;;;;;;;;;5070675;28;20182;-66
2021/11/23 04:34:57;;;;;;;18.35;13.68;;;;;;;;;;5070686;28;20649;-66
2021/11/23 04:37:26;;;;;;;17.83;13.65;;;;;;;;;;5071590;28;20187;-65
2021/11/23 04:39:57;;;;;;;20.25;13.40;;;;;;;;;;5071115;28;20228;-66
2021/11/23 04:42:25;;;;;;;18.80;13.35;;;;;;;;;;5070911;28;20209;-65
2021/11/23 04:44:57;;;;;;;21.98;14.60;;;;;;;;;;5071107;28;20252;-66
2021/11/23 04:47:25;;;;;;;22.25;14.60;;;;;;;;;;5071549;28;20190;-65
2021/11/23 04:49:52;;;;;;;18.65;12.77;;;;;;;;;;5073491;28;20197;-66
2021/11/23 04:52:20;;;;;;;20.02;13.95;;;;;;;;;;5075054;28;20219;-66
2021/11/23 04:54:48;;;;;;;20.73;14.50;;;;;;;;;;5074762;28;20190;-65
2021/11/23 04:57:18;;;;;;;21.27;14.48;;;;;;;;;;5074989;28;20714;-66
2021/11/23 04:59:52;;;;;;;19.58;13.13;;;;;;;;;;5074907;28;20201;-66
2021/11/23 05:02:23;;;;;;;22.48;14.90;;;;;;;;;;5074156;28;20639;-65
2021/11/23 05:04:51;;;;;;;20.63;13.25;;;;;;;;;;5074454;28;20256;-66
2021/11/23 05:07:19;;;;;;;18.38;12.77;;;;;;;;;;5074445;28;20190;-66
2021/11/23 05:09:49;;;;;;;19.65;14.15;;;;;;;;;;5074339;28;20231;-66
2021/11/23 05:12:22;;;;;;;20.08;13.25;;;;;;;;;;5074712;28;20660;-66
2021/11/23 05:14:50;;;;;;;19.50;13.02;;;;;;;;;;5073660;28;20222;-66
2021/11/23 05:17:18;;;;;;;25.98;14.38;;;;;;;;;;5075187;28;20263;-66
2021/11/23 05:19:46;;;;;;;20.83;14.48;;;;;;;;;;5074686;28;20218;-69
2021/11/23 05:22:16;;;;;;;20.00;13.88;;;;;;;;;;5063979;28;20245;-65
2021/11/23 05:24:44;;;;;;;16.95;13.43;;;;;;;;;;5060346;28;20195;-66
2021/11/23 05:27:15;;;;;;;17.88;12.70;;;;;;;;;;5054087;28;20603;-65
2021/11/23 05:29:44;;;;;;;19.48;13.15;;;;;;;;;;5054602;28;20206;-65
2021/11/23 05:32:12;;;;;;;18.95;13.73;;;;;;;;;;5072401;28;20198;-65
2021/11/23 05:34:40;;;;;;;21.10;13.23;;;;;;;;;;5074525;28;20226;-67
2021/11/23 05:37:08;;;;;;;20.13;14.93;;;;;;;;;;5074248;28;20616;-66
2021/11/23 05:39:36;;;;;;;19.92;12.82;;;;;;;;;;5074417;28;20259;-66
2021/11/23 05:42:04;;;;;;;17.20;12.43;;;;;;;;;;5073280;28;20301;-65
2021/11/23 05:44:31;;;;;;;18.80;13.57;;;;;;;;;;5074405;28;20243;-66
2021/11/23 05:47:01;;;;;;;17.65;13.07;;;;;;;;;;5073845;28;20232;-66
2021/11/23 05:49:28;;;;;;;18.50;13.60;;;;;;;;;;5074436;28;20194;-66
2021/11/23 05:51:58;;;;;;;20.40;13.68;;;;;;;;;;5073228;28;20186;-66
2021/11/23 05:54:26;;;;;;;16.08;12.48;;;;;;;;;;5073736;28;20193;-66
2021/11/23 05:56:53;;;;;;;18.70;13.40;;;;;;;;;;5074355;28;20187;-66
2021/11/23 05:59:23;;;;;;;17.38;13.32;;;;;;;;;;5073657;28;20190;-66
2021/11/23 06:01:51;;;;;;;19.13;14.25;;;;;;;;;;5073997;28;20219;-66
2021/11/23 06:04:20;;;;;;;21.73;12.93;;;;;;;;;;5073877;28;20617;-66
2021/11/23 06:06:49;;;;;;;21.52;13.93;;;;;;;;;;5073635;28;20190;-67
2021/11/23 06:09:19;;;;;;;18.27;14.18;;;;;;;;;;5066696;28;20285;-66
2021/11/23 06:11:50;;;;;;;20.40;12.50;;;;;;;;;;5069689;28;20212;-67
2021/11/23 06:14:17;;;;;;;19.33;12.70;;;;;;;;;;5066973;28;20218;-66
2021/11/23 06:16:47;;;;;;;20.45;14.18;;;;;;;;;;5059717;28;20187;-66
2021/11/23 06:19:18;;;;;;;19.23;13.07;;;;;;;;;;5056267;28;20240;-66
2021/11/23 06:21:49;;;;;;;17.58;13.25;;;;;;;;;;5059992;28;20187;-66
2021/11/23 06:24:17;;;;;;;18.45;13.88;;;;;;;;;;5053400;28;20266;-66
2021/11/23 06:26:47;;;;;;;22.58;13.95;;;;;;;;;;5052919;28;20650;-66
2021/11/23 06:29:19;;;;;;;19.75;13.52;;;;;;;;;;5066832;28;20213;-65
2021/11/23 06:31:48;;;;;;;20.38;12.90;;;;;;;;;;5070785;28;20564;-66
2021/11/23 06:34:18;;;;;;;19.63;13.05;;;;;;;;;;5069356;28;20183;-67
2021/11/23 06:36:49;;;;;;;20.00;12.20;;;;;;;;;;5055693;28;20187;-65
2021/11/23 06:39:19;;;;;;;15.75;12.15;;;;;;;;;;5055322;28;20229;-66
2021/11/23 06:41:47;;;;;;;16.40;11.82;;;;;;;;;;5052355;28;20195;-66
2021/11/23 06:44:15;;;;;;;18.83;12.90;;;;;;;;;;5062323;28;20194;-67
2021/11/23 06:46:43;;;;;;;17.08;11.35;;;;;;;;;;5069859;28;20190;-66
2021/11/23 06:49:13;;;;;;;18.40;12.20;;;;;;;;;;5069848;28;20186;-67
2021/11/23 06:51:40;;;;;;;15.95;12.57;;;;;;;;;;5070192;28;20226;-66
2021/11/23 06:54:10;;;;;;;17.33;12.65;;;;;;;;;;5070085;28;21107;-66
2021/11/23 06:56:40;;;;;;;18.95;12.23;;;;;;;;;;5056773;28;20195;-65
2021/11/23 06:59:08;;;;;;;16.42;11.52;;;;;;;;;;5065971;28;20665;-65
2021/11/23 07:01:38;;;;;;;21.63;13.65;;;;;;;;;;5069701;28;20280;-65
2021/11/23 07:04:12;;;;;;;18.48;12.25;;;;;;;;;;5070024;28;20213;-66
2021/11/23 07:06:40;;;;;;;21.52;13.38;;;;;;;;;;5068881;28;20190;-66
2021/11/23 07:09:08;;;;;;;17.80;12.93;;;;;;;;;;5070003;28;20205;-67
2021/11/23 07:11:35;;;;;;;17.55;12.60;;;;;;;;;;5052798;28;20197;-66
2021/11/23 07:14:06;;;;;;;19.83;14.00;;;;;;;;;;5051864;28;20230;-66
2021/11/23 07:16:34;;;;;;;18.98;13.27;;;;;;;;;;5056815;28;20308;-66
2021/11/23 07:19:02;;;;;;;19.35;12.60;;;;;;;;;;5051886;28;20248;-66
2021/11/23 07:21:36;;;;;;;18.08;11.95;;;;;;;;;;5065283;28;20634;-67
2021/11/23 07:24:04;;;;;;;20.52;13.23;;;;;;;;;;5064012;28;20676;-66
2021/11/23 07:26:32;;;;;;;17.85;13.02;;;;;;;;;;5052204;28;20281;-66
2021/11/23 07:29:07;;;;;;;19.20;14.63;;;;;;;;;;5056187;28;20590;-66
2021/11/23 07:31:34;;;;;;;20.05;13.25;;;;;;;;;;5052986;28;20296;-66
2021/11/23 07:34:02;;;;;;;40.13;29.27;;;;;;;;;;5053111;28;20218;-65
2021/11/23 07:36:33;;;;;;;31.17;21.27;;;;;;;;;;5054720;28;20190;-66
2021/11/23 07:39:01;;;;;;;21.75;16.30;;;;;;;;;;5063055;28;20186;-66
2021/11/23 07:41:28;;;;;;;24.23;18.05;;;;;;;;;;5070115;28;20197;-66
2021/11/23 07:43:56;;;;;;;19.55;15.45;;;;;;;;;;5069104;28;20241;-66
2021/11/23 07:46:25;;;;;;;19.70;15.27;;;;;;;;;;5055547;28;20205;-68
2021/11/23 07:48:53;;;;;;;22.92;16.83;;;;;;;;;;5052277;28;20260;-66
2021/11/23 07:51:20;;;;;;;18.48;13.43;;;;;;;;;;5056337;28;20178;-67
2021/11/23 07:53:48;;;;;;;19.40;12.98;;;;;;;;;;5052184;28;20273;-66
2021/11/23 07:56:15;;;;;;;21.23;13.65;;;;;;;;;;5055407;28;20217;-66
2021/11/23 07:58:42;;;;;;;20.23;13.70;;;;;;;;;;5059493;28;20198;-66
2021/11/23 08:01:10;;;;;;;16.80;12.25;;;;;;;;;;5056971;28;20186;-66
2021/11/23 08:03:42;;;;;;;18.88;13.43;;;;;;;;;;5064778;28;20224;-66
2021/11/23 08:06:10;;;;;;;19.70;11.77;;;;;;;;;;5065841;28;20304;-66
2021/11/23 08:08:39;;;;;;;18.52;13.13;;;;;;;;;;5066514;28;21418;-66
2021/11/23 08:11:08;;;;;;;15.60;11.70;;;;;;;;;;5068251;28;20200;-66
2021/11/23 08:13:36;;;;;;;17.83;12.60;;;;;;;;;;5068584;28;20225;-66
2021/11/23 08:16:05;;;;;;;18.50;12.05;;;;;;;;;;5065653;28;20658;-66
2021/11/23 08:18:36;;;;;;;17.35;12.90;;;;;;;;;;5068426;28;20193;-67
2021/11/23 08:21:18;;;;;;;16.40;11.77;;;;;;;;;;5056676;28;20201;-65
2021/11/23 08:23:49;;;;;;;14.95;10.80;;;;;;;;;;5052056;28;20317;-66
2021/11/23 08:26:17;;;;;;;14.88;11.00;;;;;;;;;;5057007;28;20193;-66
2021/11/23 08:28:46;;;;;;;16.30;11.88;;;;;;;;;;5058247;28;20222;-66
2021/11/23 08:31:13;;;;;;;13.85;10.75;;;;;;;;;;5062495;28;20248;-66
2021/11/23 08:33:41;;;;;;;14.02;10.90;;;;;;;;;;5072937;28;20201;-66
2021/11/23 08:36:12;;;;;;;17.35;11.25;;;;;;;;;;5072351;28;20203;-67
2021/11/23 08:38:41;;;;;;;15.35;11.20;;;;;;;;;;5072846;28;20595;-66
2021/11/23 08:41:11;;;;;;;13.07;10.73;;;;;;;;;;5067923;28;20204;-65
2021/11/23 08:43:40;;;;;;;15.38;11.75;;;;;;;;;;5072609;28;20250;-66
2021/11/23 08:46:09;;;;;;;12.23;8.70;;;;;;;;;;5072084;28;20248;-66
2021/11/23 08:48:37;;;;;;;12.60;10.55;;;;;;;;;;5068320;28;20260;-65
2021/11/23 08:51:06;;;;;;;12.68;9.60;;;;;;;;;;5072309;28;20187;-65
2021/11/23 08:53:34;;;;;;;12.77;10.25;;;;;;;;;;5072384;28;20213;-65
2021/11/23 08:56:01;;;;;;;11.30;8.82;;;;;;;;;;5071204;28;20193;-66
2021/11/23 08:58:31;;;;;;;14.93;9.88;;;;;;;;;;5072569;28;20534;-65
2021/11/23 09:00:59;;;;;;;14.25;11.40;;;;;;;;;;5060629;28;20226;-65
2021/11/23 09:03:27;;;;;;;11.77;9.75;;;;;;;;;;5054527;28;20646;-66
2021/11/23 09:05:55;;;;;;;12.20;9.23;;;;;;;;;;5059229;28;20178;-65
2021/11/23 09:08:22;;;;;;;12.30;9.43;;;;;;;;;;5054727;28;20205;-66
2021/11/23 09:10:50;;;;;;;13.02;9.68;;;;;;;;;;5056207;28;20195;-66
2021/11/23 09:13:17;;;;;;;12.55;9.27;;;;;;;;;;5053952;28;20191;-66
2021/11/23 09:15:47;;;;;;;12.23;9.48;;;;;;;;;;5067565;28;20190;-66
2021/11/23 09:18:14;;;;;;;13.45;9.55;;;;;;;;;;5072246;28;20187;-65
2021/11/23 09:20:43;;;;;;;12.00;8.90;;;;;;;;;;5071573;28;20292;-65
2021/11/23 09:23:12;;;;;;;11.98;8.88;;;;;;;;;;5064277;28;20248;-69
2021/11/23 09:25:40;;;;;;;13.77;10.07;;;;;;;;;;5054246;28;20198;-66
2021/11/23 09:28:08;;;;;;;13.50;9.75;;;;;;;;;;5054381;28;20191;-66
2021/11/23 09:30:40;;;;;;;14.52;9.82;;;;;;;;;;5055227;28;20244;-66
2021/11/23 09:33:09;;;;;;;11.85;9.20;;;;;;;;;;5055650;28;20268;-66
2021/11/23 09:35:36;;;;;;;13.68;10.80;;;;;;;;;;5053734;28;20187;-66
2021/11/23 09:38:06;;;;;;;14.35;10.50;;;;;;;;;;5056213;28;20264;-65
2021/11/23 09:40:34;;;;;;;13.23;9.00;;;;;;;;;;5053710;28;20268;-66
2021/11/23 09:43:03;;;;;;;13.95;9.13;;;;;;;;;;5053355;28;20213;-65
2021/11/23 09:45:31;;;;;;;12.27;10.02;;;;;;;;;;5053863;28;20257;-65
2021/11/23 09:47:59;;;;;;;14.45;11.02;;;;;;;;;;5070469;28;20657;-66
2021/11/23 09:50:28;;;;;;;11.93;8.80;;;;;;;;;;5071523;28;20687;-66
2021/11/23 09:52:56;;;;;;;12.55;8.80;;;;;;;;;;5071305;28;20259;-65
2021/11/23 09:55:24;;;;;;;14.10;9.63;;;;;;;;;;5070798;28;20190;-66
2021/11/23 09:57:52;;;;;;;12.23;9.15;;;;;;;;;;5071285;28;20276;-66
2021/11/23 10:00:30;;;;;;;13.15;9.55;;;;;;;;;;5070794;28;20568;-65
2021/11/23 10:03:02;;;;;;;12.07;9.35;;;;;;;;;;5069363;28;20579;-66
2021/11/23 10:05:36;;;;;;;10.98;8.48;;;;;;;;;;5055464;28;20206;-66
2021/11/23 10:08:08;;;;;;;12.68;9.35;;;;;;;;;;5070250;28;20323;-66
2021/11/23 10:10:46;;;;;;;12.40;8.80;;;;;;;;;;5067537;28;20216;-65
2021/11/23 10:13:16;;;;;;;13.32;8.95;;;;;;;;;;5068485;28;20280;-66
2021/11/23 10:15:46;;;;;;;10.45;8.25;;;;;;;;;;5057144;28;20193;-65
2021/11/23 10:18:18;;;;;;;11.88;9.02;;;;;;;;;;5065871;28;20200;-65
2021/11/23 10:20:55;;;;;;;14.48;11.05;;;;;;;;;;5070089;28;20201;-66
2021/11/23 10:23:25;;;;;;;14.25;10.13;;;;;;;;;;5059201;28;20225;-65
2021/11/23 10:25:53;;;;;;;11.50;8.57;;;;;;;;;;5060113;28;20281;-66
2021/11/23 10:28:29;;;;;;;12.02;8.93;;;;;;;;;;5070490;28;20243;-66
2021/11/23 10:30:58;;;;;;;12.52;9.70;;;;;;;;;;5067540;28;20194;-65
2021/11/23 10:33:29;;;;;;;10.90;8.18;;;;;;;;;;5052790;28;20616;-66
2021/11/23 10:35:59;;;;;;;12.18;9.05;;;;;;;;;;5066319;28;20194;-65
2021/11/23 10:38:27;;;;;;;12.60;9.05;;;;;;;;;;5070898;28;20190;-65
2021/11/23 10:40:55;;;;;;;10.57;7.70;;;;;;;;;;5070168;28;20259;-65
2021/11/23 10:43:26;;;;;;;11.05;9.40;;;;;;;;;;5069878;28;20263;-66
2021/11/23 10:45:57;;;;;;;12.55;8.48;;;;;;;;;;5060497;28;20604;-66
2021/11/23 10:48:25;;;;;;;11.80;8.80;;;;;;;;;;5059365;28;20198;-66
2021/11/23 10:51:02;;;;;;;11.90;9.48;;;;;;;;;;5052753;28;20195;-66
2021/11/23 10:53:30;;;;;;;12.15;8.50;;;;;;;;;;5054473;28;20195;-65
2021/11/23 10:56:05;;;;;;;10.95;8.32;;;;;;;;;;5058654;28;20188;-65
2021/11/23 10:58:35;;;;;;;11.32;8.18;;;;;;;;;;5066390;28;20198;-66
2021/11/23 11:01:05;;;;;;;11.77;8.75;;;;;;;;;;5070180;28;20198;-65
2021/11/23 11:03:34;;;;;;;12.07;8.20;;;;;;;;;;5068982;28;20760;-67
2021/11/23 11:06:03;;;;;;;14.70;10.60;;;;;;;;;;5066285;28;20589;-65
2021/11/23 11:08:34;;;;;;;14.70;10.23;;;;;;;;;;5069856;28;20197;-66
2021/11/23 11:11:03;;;;;;;15.88;9.85;;;;;;;;;;5068610;28;20182;-65
2021/11/23 11:13:31;;;;;;;12.80;10.00;;;;;;;;;;5065529;28;20261;-65
2021/11/23 11:15:59;;;;;;;14.13;9.25;;;;;;;;;;5068623;28;21104;-65
2021/11/23 11:18:27;;;;;;;14.20;10.30;;;;;;;;;;5069793;28;20197;-65
2021/11/23 11:20:58;;;;;;;12.18;8.68;;;;;;;;;;5054729;28;20198;-67
2021/11/23 11:23:28;;;;;;;13.48;10.00;;;;;;;;;;5052186;28;20238;-66
2021/11/23 11:26:02;;;;;;;15.55;9.32;;;;;;;;;;5052312;28;20190;-65
2021/11/23 11:28:45;;;;;;;10.60;8.15;;;;;;;;;;5066275;28;20193;-65
2021/11/23 11:31:31;;;;;;;13.93;9.60;;;;;;;;;;5069258;28;20187;-65
2021/11/23 11:34:16;;;;;;;12.73;9.43;;;;;;;;;;5068024;28;20216;-65
2021/11/23 11:36:45;;;;;;;11.48;8.35;;;;;;;;;;5069886;28;20201;-65
2021/11/23 11:39:42;;;;;;;12.00;8.75;;;;;;;;;;5068652;28;20182;-65
2021/11/23 11:42:34;;;;;;;10.63;8.65;;;;;;;;;;5068840;28;20190;-66
2021/11/23 11:45:13;;;;;;;12.07;9.50;;;;;;;;;;5067611;28;20217;-66
2021/11/23 11:47:41;;;;;;;11.60;8.70;;;;;;;;;;5067302;28;20243;-65
2021/11/23 11:50:12;;;;;;;12.73;8.48;;;;;;;;;;5064606;28;20264;-65
2021/11/23 11:52:54;;;;;;;13.02;10.18;;;;;;;;;;5069024;28;20283;-65
2021/11/23 11:55:24;;;;;;;12.00;9.40;;;;;;;;;;5052243;28;20183;-66
2021/11/23 11:57:52;;;;;;;11.93;8.75;;;;;;;;;;5065007;28;20281;-65
2021/11/23 12:00:31;;;;;;;14.00;8.77;;;;;;;;;;5069840;28;20207;-65
2021/11/23 12:03:03;;;;;;;12.98;9.45;;;;;;;;;;5068883;28;20224;-65
2021/11/23 12:05:45;;;;;;;13.68;9.80;;;;;;;;;;5066816;28;20268;-65
2021/11/23 12:08:22;;;;;;;17.67;9.85;;;;;;;;;;5056059;28;20275;-66
2021/11/23 12:10:51;;;;;;;12.80;10.00;;;;;;;;;;5054517;28;20183;-66
2021/11/23 12:13:25;;;;;;;11.48;8.65;;;;;;;;;;5051297;28;20230;-65
2021/11/23 12:16:07;;;;;;;11.80;8.82;;;;;;;;;;5057183;28;20243;-65
2021/11/23 12:18:58;;;;;;;10.68;8.77;;;;;;;;;;5055669;28;20281;-65
2021/11/23 12:21:29;;;;;;;11.73;8.40;;;;;;;;;;5060217;28;20213;-66
2021/11/23 12:23:57;;;;;;;12.55;8.90;;;;;;;;;;5051575;28;20301;-65
2021/11/23 12:26:27;;;;;;;11.93;9.05;;;;;;;;;;5060977;28;20236;-66
2021/11/23 12:28:55;;;;;;;14.10;8.90;;;;;;;;;;5068577;28;20194;-66
2021/11/23 12:31:23;;;;;;;12.63;9.38;;;;;;;;;;5053934;28;20241;-66
2021/11/23 12:33:52;;;;;;;11.68;8.70;;;;;;;;;;5064329;28;20597;-66
2021/11/23 12:36:24;;;;;;;11.55;9.02;;;;;;;;;;5052542;28;20183;-67
2021/11/23 12:38:54;;;;;;;11.85;9.10;;;;;;;;;;5065828;28;20220;-66
2021/11/23 12:41:23;;;;;;;12.55;9.25;;;;;;;;;;5057079;28;20193;-66
2021/11/23 12:43:52;;;;;;;11.48;8.05;;;;;;;;;;5054395;28;20190;-66
2021/11/23 12:46:21;;;;;;;14.57;9.20;;;;;;;;;;5055742;28;20626;-67
2021/11/23 12:48:51;;;;;;;11.35;8.40;;;;;;;;;;5056084;28;20597;-66
2021/11/23 12:51:23;;;;;;;11.27;7.63;;;;;;;;;;5068595;28;20248;-66
2021/11/23 12:53:53;;;;;;;11.25;8.68;;;;;;;;;;5056260;28;20286;-66
2021/11/23 12:56:21;;;;;;;9.77;7.30;;;;;;;;;;5059260;28;20285;-66
2021/11/23 12:58:48;;;;;;;10.50;8.48;;;;;;;;;;5068493;28;20283;-66
2021/11/23 13:01:28;;;;;;;16.08;9.30;;;;;;;;;;5059342;28;20539;-66
2021/11/23 13:03:59;;;;;;;11.38;9.18;;;;;;;;;;5051100;28;20187;-66
2021/11/23 13:06:28;;;;;;;12.60;9.23;;;;;;;;;;5054464;28;20285;-67
2021/11/23 13:08:59;;;;;;;13.40;9.63;;;;;;;;;;5054471;28;20643;-67
2021/11/23 13:11:27;;;;;;;14.43;10.57;;;;;;;;;;5067470;28;20175;-66
2021/11/23 13:13:54;;;;;;;12.48;9.68;;;;;;;;;;5063977;28;20335;-66
2021/11/23 13:16:21;;;;;;;11.10;8.77;;;;;;;;;;5058667;28;20264;-65
2021/11/23 13:18:52;;;;;;;13.77;10.10;;;;;;;;;;5056136;28;20186;-67
2021/11/23 13:21:22;;;;;;;11.98;8.70;;;;;;;;;;5062696;28;20197;-66
2021/11/23 13:23:51;;;;;;;14.32;9.25;;;;;;;;;;5069856;28;20193;-69
2021/11/23 13:26:21;;;;;;;12.48;8.80;;;;;;;;;;5060468;28;20618;-67
2021/11/23 13:28:59;;;;;;;11.85;9.20;;;;;;;;;;5052390;28;20190;-67
2021/11/23 13:31:27;;;;;;;11.82;8.63;;;;;;;;;;5066061;28;20629;-66
2021/11/23 13:33:57;;;;;;;13.55;9.68;;;;;;;;;;5055363;28;20646;-65
2021/11/23 13:36:27;;;;;;;14.75;10.60;;;;;;;;;;5052896;28;20230;-66
2021/11/23 13:38:55;;;;;;;10.88;8.73;;;;;;;;;;5067058;28;20686;-66
2021/11/23 13:41:28;;;;;;;11.95;8.77;;;;;;;;;;5070869;28;20248;-67
2021/11/23 13:44:01;;;;;;;12.68;8.57;;;;;;;;;;5060028;28;20217;-66
2021/11/23 13:46:38;;;;;;;10.25;8.63;;;;;;;;;;5068524;28;20190;-66
2021/11/23 13:49:08;;;;;;;16.23;9.82;;;;;;;;;;5069781;28;20646;-66
2021/11/23 13:51:35;;;;;;;12.05;7.28;;;;;;;;;;5067287;28;20672;-66
2021/11/23 13:54:05;;;;;;;11.40;8.55;;;;;;;;;;5070672;28;20202;-66
2021/11/23 13:56:39;;;;;;;11.90;8.30;;;;;;;;;;5055337;28;20266;-66
2021/11/23 13:59:07;;;;;;;9.68;7.25;;;;;;;;;;5059065;28;20245;-66
2021/11/23 14:01:49;;;;;;;12.20;8.27;;;;;;;;;;5069898;28;20194;-66
2021/11/23 14:04:24;;;;;;;13.77;9.52;;;;;;;;;;5054159;28;20218;-66
2021/11/23 14:07:07;;;;;;;10.48;8.88;;;;;;;;;;5051775;28;20194;-66
2021/11/23 14:10:04;;;;;;;10.68;8.63;;;;;;;;;;5055074;28;20608;-66
2021/11/23 14:12:32;;;;;;;9.43;7.05;;;;;;;;;;5053034;28;20198;-66
2021/11/23 14:15:03;;;;;;;11.55;8.38;;;;;;;;;;5052312;28;20288;-66
2021/11/23 14:17:49;;;;;;;11.50;8.35;;;;;;;;;;5055831;28;20206;-66
2021/11/23 14:20:20;;;;;;;10.27;8.27;;;;;;;;;;5053150;28;20564;-67
2021/11/23 14:22:50;;;;;;;10.15;6.75;;;;;;;;;;5067691;28;20193;-67
2021/11/23 14:25:18;;;;;;;11.52;8.15;;;;;;;;;;5070199;28;20218;-66
2021/11/23 14:27:49;;;;;;;11.63;8.35;;;;;;;;;;5056212;28;20214;-66
2021/11/23 14:30:17;;;;;;;10.30;7.43;;;;;;;;;;5051101;28;20187;-67
2021/11/23 14:32:44;;;;;;;13.95;8.63;;;;;;;;;;5066624;28;20179;-66
2021/11/23 14:35:12;;;;;;;12.18;8.45;;;;;;;;;;5069706;28;20229;-67
2021/11/23 14:37:43;;;;;;;11.85;8.23;;;;;;;;;;5051495;28;20199;-67
2021/11/23 14:40:12;;;;;;;11.68;7.95;;;;;;;;;;5068809;28;20687;-66